sensor_id;sensor_type;location;lat;lon;timestamp;temperature;humidity
74661;SHT31;63191;39.566;2.654;2023-06-24T00:02:17;23.57;74.26
74661;SHT31;63191;39.566;2.654;2023-06-24T00:04:42;23.58;74.37
74661;SHT31;63191;39.566;2.654;2023-06-24T00:07:08;23.56;74.40
74661;SHT31;63191;39.566;2.654;2023-06-24T00:09:34;23.56;74.40
74661;SHT31;63191;39.566;2.654;2023-06-24T00:12:00;23.56;74.37
74661;SHT31;63191;39.566;2.654;2023-06-24T00:14:27;23.54;74.22
74661;SHT31;63191;39.566;2.654;2023-06-24T00:16:53;23.52;74.07
74661;SHT31;63191;39.566;2.654;2023-06-24T00:19:24;23.50;73.92
74661;SHT31;63191;39.566;2.654;2023-06-24T00:21:53;23.47;73.89
74661;SHT31;63191;39.566;2.654;2023-06-24T00:24:19;23.46;73.98
74661;SHT31;63191;39.566;2.654;2023-06-24T00:26:50;23.44;73.85
74661;SHT31;63191;39.566;2.654;2023-06-24T00:29:19;23.42;73.73
74661;SHT31;63191;39.566;2.654;2023-06-24T00:31:45;23.40;73.58
74661;SHT31;63191;39.566;2.654;2023-06-24T00:34:12;23.39;73.47
74661;SHT31;63191;39.566;2.654;2023-06-24T00:36:38;23.39;73.36
74661;SHT31;63191;39.566;2.654;2023-06-24T00:39:04;23.38;73.14
74661;SHT31;63191;39.566;2.654;2023-06-24T00:41:31;23.36;72.94
74661;SHT31;63191;39.566;2.654;2023-06-24T00:43:58;23.33;72.71
74661;SHT31;63191;39.566;2.654;2023-06-24T00:46:25;23.31;72.54
74661;SHT31;63191;39.566;2.654;2023-06-24T00:48:52;23.29;72.38
74661;SHT31;63191;39.566;2.654;2023-06-24T00:51:22;23.26;72.24
74661;SHT31;63191;39.566;2.654;2023-06-24T00:53:54;23.23;72.19
74661;SHT31;63191;39.566;2.654;2023-06-24T00:56:21;23.21;72.16
74661;SHT31;63191;39.566;2.654;2023-06-24T00:58:54;23.20;72.14
74661;SHT31;63191;39.566;2.654;2023-06-24T01:01:23;23.19;72.18
74661;SHT31;63191;39.566;2.654;2023-06-24T01:03:49;23.19;72.26
74661;SHT31;63191;39.566;2.654;2023-06-24T01:06:15;23.19;72.36
74661;SHT31;63191;39.566;2.654;2023-06-24T01:08:41;23.18;72.50
74661;SHT31;63191;39.566;2.654;2023-06-24T01:11:07;23.18;72.59
74661;SHT31;63191;39.566;2.654;2023-06-24T01:13:32;23.17;72.67
74661;SHT31;63191;39.566;2.654;2023-06-24T01:16:00;23.15;72.87
74661;SHT31;63191;39.566;2.654;2023-06-24T01:18:40;23.14;73.03
74661;SHT31;63191;39.566;2.654;2023-06-24T01:27:09;23.09;73.71
74661;SHT31;63191;39.566;2.654;2023-06-24T01:33:08;23.04;74.15
74661;SHT31;63191;39.566;2.654;2023-06-24T01:35:38;23.02;74.52
74661;SHT31;63191;39.566;2.654;2023-06-24T01:38:08;23.01;74.74
74661;SHT31;63191;39.566;2.654;2023-06-24T01:40:50;23.00;74.83
74661;SHT31;63191;39.566;2.654;2023-06-24T01:43:17;22.98;74.96
74661;SHT31;63191;39.566;2.654;2023-06-24T01:45:48;22.97;75.13
74661;SHT31;63191;39.566;2.654;2023-06-24T01:48:27;22.95;75.27
74661;SHT31;63191;39.566;2.654;2023-06-24T01:50:59;22.95;75.38
74661;SHT31;63191;39.566;2.654;2023-06-24T01:53:31;22.93;75.40
74661;SHT31;63191;39.566;2.654;2023-06-24T01:56:05;22.92;75.38
74661;SHT31;63191;39.566;2.654;2023-06-24T01:58:34;22.89;75.39
74661;SHT31;63191;39.566;2.654;2023-06-24T02:01:01;22.87;75.47
74661;SHT31;63191;39.566;2.654;2023-06-24T02:03:28;22.85;75.52
74661;SHT31;63191;39.566;2.654;2023-06-24T02:05:57;22.84;75.61
74661;SHT31;63191;39.566;2.654;2023-06-24T02:08:23;22.84;75.70
74661;SHT31;63191;39.566;2.654;2023-06-24T02:10:51;22.82;75.84
74661;SHT31;63191;39.566;2.654;2023-06-24T02:13:18;22.80;75.96
74661;SHT31;63191;39.566;2.654;2023-06-24T02:15:45;22.79;76.13
74661;SHT31;63191;39.566;2.654;2023-06-24T02:18:14;22.77;76.23
74661;SHT31;63191;39.566;2.654;2023-06-24T02:20:42;22.76;76.35
74661;SHT31;63191;39.566;2.654;2023-06-24T02:23:10;22.74;76.40
74661;SHT31;63191;39.566;2.654;2023-06-24T02:25:36;22.73;76.51
74661;SHT31;63191;39.566;2.654;2023-06-24T02:28:06;22.73;76.63
74661;SHT31;63191;39.566;2.654;2023-06-24T02:30:37;22.71;76.69
74661;SHT31;63191;39.566;2.654;2023-06-24T02:33:03;22.70;76.77
74661;SHT31;63191;39.566;2.654;2023-06-24T02:35:30;22.70;76.86
74661;SHT31;63191;39.566;2.654;2023-06-24T02:37:55;22.70;76.99
74661;SHT31;63191;39.566;2.654;2023-06-24T02:40:21;22.69;77.10
74661;SHT31;63191;39.566;2.654;2023-06-24T02:42:47;22.68;77.14
74661;SHT31;63191;39.566;2.654;2023-06-24T02:45:13;22.67;77.16
74661;SHT31;63191;39.566;2.654;2023-06-24T02:47:40;22.65;77.19
74661;SHT31;63191;39.566;2.654;2023-06-24T02:50:09;22.63;77.17
74661;SHT31;63191;39.566;2.654;2023-06-24T02:52:36;22.60;77.21
74661;SHT31;63191;39.566;2.654;2023-06-24T02:55:02;22.60;77.35
74661;SHT31;63191;39.566;2.654;2023-06-24T02:57:30;22.59;77.51
74661;SHT31;63191;39.566;2.654;2023-06-24T02:59:57;22.59;77.60
74661;SHT31;63191;39.566;2.654;2023-06-24T03:02:23;22.58;77.60
74661;SHT31;63191;39.566;2.654;2023-06-24T03:04:52;22.57;77.62
74661;SHT31;63191;39.566;2.654;2023-06-24T03:07:19;22.55;77.65
74661;SHT31;63191;39.566;2.654;2023-06-24T03:09:45;22.54;77.73
74661;SHT31;63191;39.566;2.654;2023-06-24T03:12:11;22.52;77.80
74661;SHT31;63191;39.566;2.654;2023-06-24T03:14:37;22.52;77.92
74661;SHT31;63191;39.566;2.654;2023-06-24T03:17:03;22.51;78.02
74661;SHT31;63191;39.566;2.654;2023-06-24T03:19:29;22.49;78.13
74661;SHT31;63191;39.566;2.654;2023-06-24T03:21:55;22.49;78.28
74661;SHT31;63191;39.566;2.654;2023-06-24T03:24:20;22.47;78.43
74661;SHT31;63191;39.566;2.654;2023-06-24T03:26:47;22.47;78.53
74661;SHT31;63191;39.566;2.654;2023-06-24T03:29:13;22.46;78.63
74661;SHT31;63191;39.566;2.654;2023-06-24T03:31:38;22.44;78.71
74661;SHT31;63191;39.566;2.654;2023-06-24T03:34:09;22.44;78.83
74661;SHT31;63191;39.566;2.654;2023-06-24T03:36:35;22.42;78.95
74661;SHT31;63191;39.566;2.654;2023-06-24T03:39:04;22.41;79.01
74661;SHT31;63191;39.566;2.654;2023-06-24T03:41:30;22.40;79.20
74661;SHT31;63191;39.566;2.654;2023-06-24T03:43:56;22.41;79.44
74661;SHT31;63191;39.566;2.654;2023-06-24T03:46:22;22.43;79.60
74661;SHT31;63191;39.566;2.654;2023-06-24T03:48:49;22.43;79.61
74661;SHT31;63191;39.566;2.654;2023-06-24T03:51:15;22.43;79.61
74661;SHT31;63191;39.566;2.654;2023-06-24T03:53:41;22.43;79.64
74661;SHT31;63191;39.566;2.654;2023-06-24T03:56:07;22.44;79.74
74661;SHT31;63191;39.566;2.654;2023-06-24T03:58:33;22.46;79.87
74661;SHT31;63191;39.566;2.654;2023-06-24T04:00:59;22.47;80.07
74661;SHT31;63191;39.566;2.654;2023-06-24T04:03:27;22.49;80.09
74661;SHT31;63191;39.566;2.654;2023-06-24T04:05:54;22.50;80.09
74661;SHT31;63191;39.566;2.654;2023-06-24T04:08:21;22.48;80.10
74661;SHT31;63191;39.566;2.654;2023-06-24T04:10:50;22.46;79.84
74661;SHT31;63191;39.566;2.654;2023-06-24T04:13:16;22.46;79.38
74661;SHT31;63191;39.566;2.654;2023-06-24T04:15:43;22.45;78.91
74661;SHT31;63191;39.566;2.654;2023-06-24T04:18:09;22.45;78.45
74661;SHT31;63191;39.566;2.654;2023-06-24T04:20:34;22.45;78.01
74661;SHT31;63191;39.566;2.654;2023-06-24T04:23:00;22.44;77.70
74661;SHT31;63191;39.566;2.654;2023-06-24T04:25:26;22.44;77.47
74661;SHT31;63191;39.566;2.654;2023-06-24T04:27:52;22.42;77.23
74661;SHT31;63191;39.566;2.654;2023-06-24T04:30:17;22.40;77.10
74661;SHT31;63191;39.566;2.654;2023-06-24T04:32:43;22.39;76.97
74661;SHT31;63191;39.566;2.654;2023-06-24T04:35:09;22.40;76.78
74661;SHT31;63191;39.566;2.654;2023-06-24T04:37:35;22.41;76.59
74661;SHT31;63191;39.566;2.654;2023-06-24T04:40:00;22.42;76.41
74661;SHT31;63191;39.566;2.654;2023-06-24T04:42:26;22.43;76.25
74661;SHT31;63191;39.566;2.654;2023-06-24T04:44:53;22.45;76.03
74661;SHT31;63191;39.566;2.654;2023-06-24T04:47:18;22.48;75.85
74661;SHT31;63191;39.566;2.654;2023-06-24T04:49:45;22.51;75.68
74661;SHT31;63191;39.566;2.654;2023-06-24T04:52:11;22.56;75.51
74661;SHT31;63191;39.566;2.654;2023-06-24T04:54:37;22.64;75.26
74661;SHT31;63191;39.566;2.654;2023-06-24T04:57:05;22.73;75.02
74661;SHT31;63191;39.566;2.654;2023-06-24T04:59:34;22.82;74.73
74661;SHT31;63191;39.566;2.654;2023-06-24T05:02:03;22.93;74.41
74661;SHT31;63191;39.566;2.654;2023-06-24T05:04:29;23.11;74.05
74661;SHT31;63191;39.566;2.654;2023-06-24T05:06:54;23.45;73.36
74661;SHT31;63191;39.566;2.654;2023-06-24T05:09:20;23.86;72.60
74661;SHT31;63191;39.566;2.654;2023-06-24T05:11:46;24.28;71.80
74661;SHT31;63191;39.566;2.654;2023-06-24T05:14:11;24.73;70.94
74661;SHT31;63191;39.566;2.654;2023-06-24T05:16:40;25.22;70.05
74661;SHT31;63191;39.566;2.654;2023-06-24T05:19:06;25.69;69.22
74661;SHT31;63191;39.566;2.654;2023-06-24T05:21:32;26.17;68.26
74661;SHT31;63191;39.566;2.654;2023-06-24T05:23:57;26.68;67.14
74661;SHT31;63191;39.566;2.654;2023-06-24T05:26:23;27.18;65.96
74661;SHT31;63191;39.566;2.654;2023-06-24T05:28:49;27.66;64.27
74661;SHT31;63191;39.566;2.654;2023-06-24T05:31:14;28.13;62.36
74661;SHT31;63191;39.566;2.654;2023-06-24T05:33:40;28.58;61.18
74661;SHT31;63191;39.566;2.654;2023-06-24T05:36:05;29.07;60.29
74661;SHT31;63191;39.566;2.654;2023-06-24T05:38:31;29.59;59.01
74661;SHT31;63191;39.566;2.654;2023-06-24T05:40:57;30.09;57.44
74661;SHT31;63191;39.566;2.654;2023-06-24T05:43:23;30.56;56.22
74661;SHT31;63191;39.566;2.654;2023-06-24T05:45:50;30.99;54.76
74661;SHT31;63191;39.566;2.654;2023-06-24T05:48:16;31.40;53.24
74661;SHT31;63191;39.566;2.654;2023-06-24T05:50:42;31.79;51.96
74661;SHT31;63191;39.566;2.654;2023-06-24T05:53:07;32.15;50.53
74661;SHT31;63191;39.566;2.654;2023-06-24T05:55:33;32.43;49.10
74661;SHT31;63191;39.566;2.654;2023-06-24T05:57:59;32.71;47.97
74661;SHT31;63191;39.566;2.654;2023-06-24T06:00:25;32.94;47.04
74661;SHT31;63191;39.566;2.654;2023-06-24T06:02:50;33.20;46.63
74661;SHT31;63191;39.566;2.654;2023-06-24T06:05:16;33.52;46.01
74661;SHT31;63191;39.566;2.654;2023-06-24T06:07:42;33.79;44.73
74661;SHT31;63191;39.566;2.654;2023-06-24T06:10:09;34.03;44.50
74661;SHT31;63191;39.566;2.654;2023-06-24T06:12:36;34.30;43.95
74661;SHT31;63191;39.566;2.654;2023-06-24T06:15:02;34.57;43.25
74661;SHT31;63191;39.566;2.654;2023-06-24T06:17:28;34.84;42.88
74661;SHT31;63191;39.566;2.654;2023-06-24T06:19:54;35.11;42.36
74661;SHT31;63191;39.566;2.654;2023-06-24T06:22:19;35.37;42.19
74661;SHT31;63191;39.566;2.654;2023-06-24T06:24:45;35.64;41.35
74661;SHT31;63191;39.566;2.654;2023-06-24T06:27:11;35.87;40.96
74661;SHT31;63191;39.566;2.654;2023-06-24T06:29:40;36.11;40.66
74661;SHT31;63191;39.566;2.654;2023-06-24T06:32:06;36.31;40.47
74661;SHT31;63191;39.566;2.654;2023-06-24T06:34:32;35.95;40.93
74661;SHT31;63191;39.566;2.654;2023-06-24T06:36:58;35.22;41.48
74661;SHT31;63191;39.566;2.654;2023-06-24T06:39:24;34.62;42.36
74661;SHT31;63191;39.566;2.654;2023-06-24T06:41:50;34.06;42.98
74661;SHT31;63191;39.566;2.654;2023-06-24T06:44:15;33.46;43.46
74661;SHT31;63191;39.566;2.654;2023-06-24T06:46:41;32.93;44.57
74661;SHT31;63191;39.566;2.654;2023-06-24T06:49:07;32.48;45.19
74661;SHT31;63191;39.566;2.654;2023-06-24T06:51:32;31.93;46.30
74661;SHT31;63191;39.566;2.654;2023-06-24T06:53:59;31.54;47.37
74661;SHT31;63191;39.566;2.654;2023-06-24T06:56:25;31.14;47.83
74661;SHT31;63191;39.566;2.654;2023-06-24T06:58:51;30.74;49.02
74661;SHT31;63191;39.566;2.654;2023-06-24T07:01:17;30.43;50.00
74661;SHT31;63191;39.566;2.654;2023-06-24T07:03:44;30.18;50.63
74661;SHT31;63191;39.566;2.654;2023-06-24T07:06:10;29.90;51.19
74661;SHT31;63191;39.566;2.654;2023-06-24T07:08:36;29.66;51.91
74661;SHT31;63191;39.566;2.654;2023-06-24T07:11:02;29.52;52.71
74661;SHT31;63191;39.566;2.654;2023-06-24T07:13:28;29.35;53.54
74661;SHT31;63191;39.566;2.654;2023-06-24T07:15:54;29.15;54.29
74661;SHT31;63191;39.566;2.654;2023-06-24T07:18:23;29.06;55.02
74661;SHT31;63191;39.566;2.654;2023-06-24T07:20:49;28.98;55.40
74661;SHT31;63191;39.566;2.654;2023-06-24T07:23:15;28.94;55.81
74661;SHT31;63191;39.566;2.654;2023-06-24T07:25:40;28.88;56.08
74661;SHT31;63191;39.566;2.654;2023-06-24T07:28:06;28.75;56.53
74661;SHT31;63191;39.566;2.654;2023-06-24T07:30:32;28.66;57.09
74661;SHT31;63191;39.566;2.654;2023-06-24T07:32:58;28.62;57.39
74661;SHT31;63191;39.566;2.654;2023-06-24T07:35:23;28.56;57.59
74661;SHT31;63191;39.566;2.654;2023-06-24T07:37:49;28.50;57.85
74661;SHT31;63191;39.566;2.654;2023-06-24T07:40:15;28.49;58.12
74661;SHT31;63191;39.566;2.654;2023-06-24T07:42:41;28.51;58.44
74661;SHT31;63191;39.566;2.654;2023-06-24T07:45:07;28.50;58.59
74661;SHT31;63191;39.566;2.654;2023-06-24T07:47:33;28.44;58.85
74661;SHT31;63191;39.566;2.654;2023-06-24T07:49:58;28.38;59.22
74661;SHT31;63191;39.566;2.654;2023-06-24T07:52:24;28.28;59.46
74661;SHT31;63191;39.566;2.654;2023-06-24T07:54:50;28.25;59.89
74661;SHT31;63191;39.566;2.654;2023-06-24T07:57:15;28.30;60.20
74661;SHT31;63191;39.566;2.654;2023-06-24T07:59:42;28.46;60.40
74661;SHT31;63191;39.566;2.654;2023-06-24T08:02:08;28.78;59.82
74661;SHT31;63191;39.566;2.654;2023-06-24T08:04:34;28.92;59.33
74661;SHT31;63191;39.566;2.654;2023-06-24T08:06:59;28.91;59.40
74661;SHT31;63191;39.566;2.654;2023-06-24T08:09:25;28.96;59.63
74661;SHT31;63191;39.566;2.654;2023-06-24T08:11:51;29.10;59.56
74661;SHT31;63191;39.566;2.654;2023-06-24T08:14:16;29.33;58.86
74661;SHT31;63191;39.566;2.654;2023-06-24T08:16:42;29.32;57.84
74661;SHT31;63191;39.566;2.654;2023-06-24T08:19:08;29.16;57.98
74661;SHT31;63191;39.566;2.654;2023-06-24T08:21:33;29.07;58.33
74661;SHT31;63191;39.566;2.654;2023-06-24T08:23:59;29.03;58.99
74661;SHT31;63191;39.566;2.654;2023-06-24T08:26:25;29.11;58.97
74661;SHT31;63191;39.566;2.654;2023-06-24T08:28:51;29.12;58.84
74661;SHT31;63191;39.566;2.654;2023-06-24T08:31:16;29.04;58.94
74661;SHT31;63191;39.566;2.654;2023-06-24T08:33:45;28.97;59.22
74661;SHT31;63191;39.566;2.654;2023-06-24T08:36:11;28.92;59.41
74661;SHT31;63191;39.566;2.654;2023-06-24T08:38:37;29.12;59.77
74661;SHT31;63191;39.566;2.654;2023-06-24T08:41:04;29.56;58.57
74661;SHT31;63191;39.566;2.654;2023-06-24T08:43:29;29.85;56.70
74661;SHT31;63191;39.566;2.654;2023-06-24T08:45:55;29.71;56.66
74661;SHT31;63191;39.566;2.654;2023-06-24T08:48:21;29.53;57.49
74661;SHT31;63191;39.566;2.654;2023-06-24T08:50:49;29.50;58.30
74661;SHT31;63191;39.566;2.654;2023-06-24T08:53:18;29.68;58.51
74661;SHT31;63191;39.566;2.654;2023-06-24T08:55:45;30.01;58.07
74661;SHT31;63191;39.566;2.654;2023-06-24T08:58:12;30.43;56.07
74661;SHT31;63191;39.566;2.654;2023-06-24T09:00:38;30.77;54.60
74661;SHT31;63191;39.566;2.654;2023-06-24T09:03:06;30.82;53.90
74661;SHT31;63191;39.566;2.654;2023-06-24T09:05:32;30.86;52.89
74661;SHT31;63191;39.566;2.654;2023-06-24T09:07:58;30.89;52.37
74661;SHT31;63191;39.566;2.654;2023-06-24T09:13:00;31.28;52.63
74661;SHT31;63191;39.566;2.654;2023-06-24T09:15:34;31.69;52.17
74661;SHT31;63191;39.566;2.654;2023-06-24T09:18:03;31.93;50.94
74661;SHT31;63191;39.566;2.654;2023-06-24T09:20:30;31.94;50.42
74661;SHT31;63191;39.566;2.654;2023-06-24T09:22:58;31.73;50.76
74661;SHT31;63191;39.566;2.654;2023-06-24T09:25:25;31.57;51.30
74661;SHT31;63191;39.566;2.654;2023-06-24T09:27:51;31.52;51.49
74661;SHT31;63191;39.566;2.654;2023-06-24T09:30:20;31.60;51.92
74661;SHT31;63191;39.566;2.654;2023-06-24T09:32:48;31.97;51.94
74661;SHT31;63191;39.566;2.654;2023-06-24T09:35:16;32.51;50.42
74661;SHT31;63191;39.566;2.654;2023-06-24T09:37:51;32.92;48.08
74661;SHT31;63191;39.566;2.654;2023-06-24T09:40:19;33.17;47.60
74661;SHT31;63191;39.566;2.654;2023-06-24T09:42:52;33.23;46.70
74661;SHT31;63191;39.566;2.654;2023-06-24T09:47:53;33.02;45.45
74661;SHT31;63191;39.566;2.654;2023-06-24T09:50:20;32.92;45.98
74661;SHT31;63191;39.566;2.654;2023-06-24T09:52:48;32.82;46.83
74661;SHT31;63191;39.566;2.654;2023-06-24T09:55:16;32.66;49.51
74661;SHT31;63191;39.566;2.654;2023-06-24T09:57:47;32.55;50.73
74661;SHT31;63191;39.566;2.654;2023-06-24T10:00:17;32.54;50.46
74661;SHT31;63191;39.566;2.654;2023-06-24T10:02:45;32.45;50.47
74661;SHT31;63191;39.566;2.654;2023-06-24T10:05:12;32.28;51.30
74661;SHT31;63191;39.566;2.654;2023-06-24T10:07:39;31.82;51.90
74661;SHT31;63191;39.566;2.654;2023-06-24T10:10:07;31.25;52.07
74661;SHT31;63191;39.566;2.654;2023-06-24T10:12:37;30.83;52.72
74661;SHT31;63191;39.566;2.654;2023-06-24T10:15:04;30.43;53.16
74661;SHT31;63191;39.566;2.654;2023-06-24T10:17:31;30.15;53.06
74661;SHT31;63191;39.566;2.654;2023-06-24T10:19:57;30.04;53.28
74661;SHT31;63191;39.566;2.654;2023-06-24T10:22:23;30.04;53.07
74661;SHT31;63191;39.566;2.654;2023-06-24T10:24:51;30.24;54.52
74661;SHT31;63191;39.566;2.654;2023-06-24T10:27:19;30.44;53.38
74661;SHT31;63191;39.566;2.654;2023-06-24T10:29:47;30.56;52.07
74661;SHT31;63191;39.566;2.654;2023-06-24T10:32:18;30.63;53.13
74661;SHT31;63191;39.566;2.654;2023-06-24T10:34:47;30.52;52.76
74661;SHT31;63191;39.566;2.654;2023-06-24T10:39:58;30.07;53.26
74661;SHT31;63191;39.566;2.654;2023-06-24T10:42:38;29.89;54.24
74661;SHT31;63191;39.566;2.654;2023-06-24T10:47:34;29.80;54.61
74661;SHT31;63191;39.566;2.654;2023-06-24T10:50:08;29.88;52.85
74661;SHT31;63191;39.566;2.654;2023-06-24T10:52:44;30.06;51.20
74661;SHT31;63191;39.566;2.654;2023-06-24T10:55:15;30.33;51.33
74661;SHT31;63191;39.566;2.654;2023-06-24T10:57:43;30.51;50.22
74661;SHT31;63191;39.566;2.654;2023-06-24T11:00:10;30.58;50.35
74661;SHT31;63191;39.566;2.654;2023-06-24T11:02:40;30.69;50.23
74661;SHT31;63191;39.566;2.654;2023-06-24T11:05:07;30.63;50.83
74661;SHT31;63191;39.566;2.654;2023-06-24T11:07:33;30.38;52.77
74661;SHT31;63191;39.566;2.654;2023-06-24T11:12:32;29.98;54.80
74661;SHT31;63191;39.566;2.654;2023-06-24T11:15:03;29.88;54.01
74661;SHT31;63191;39.566;2.654;2023-06-24T11:17:35;29.80;53.52
74661;SHT31;63191;39.566;2.654;2023-06-24T11:20:05;29.79;54.41
74661;SHT31;63191;39.566;2.654;2023-06-24T11:22:36;29.83;54.46
74661;SHT31;63191;39.566;2.654;2023-06-24T11:25:03;29.91;55.27
74661;SHT31;63191;39.566;2.654;2023-06-24T11:27:30;30.08;53.85
74661;SHT31;63191;39.566;2.654;2023-06-24T11:30:00;30.22;52.20
74661;SHT31;63191;39.566;2.654;2023-06-24T11:32:36;30.29;51.97
74661;SHT31;63191;39.566;2.654;2023-06-24T11:35:08;30.30;50.98
74661;SHT31;63191;39.566;2.654;2023-06-24T11:37:35;30.44;50.49
74661;SHT31;63191;39.566;2.654;2023-06-24T11:40:05;30.71;48.58
74661;SHT31;63191;39.566;2.654;2023-06-24T11:42:36;30.86;46.35
74661;SHT31;63191;39.566;2.654;2023-06-24T11:45:08;30.90;46.58
74661;SHT31;63191;39.566;2.654;2023-06-24T11:47:39;30.88;46.94
74661;SHT31;63191;39.566;2.654;2023-06-24T11:50:06;30.83;46.68
74661;SHT31;63191;39.566;2.654;2023-06-24T11:55:39;30.90;47.04
74661;SHT31;63191;39.566;2.654;2023-06-24T11:57:58;31.16;45.76
74661;SHT31;63191;39.566;2.654;2023-06-24T12:00:32;31.32;45.72
74661;SHT31;63191;39.566;2.654;2023-06-24T12:03:02;31.56;45.51
74661;SHT31;63191;39.566;2.654;2023-06-24T12:05:31;31.94;44.27
74661;SHT31;63191;39.566;2.654;2023-06-24T12:08:00;32.41;42.58
74661;SHT31;63191;39.566;2.654;2023-06-24T12:10:31;32.71;42.49
74661;SHT31;63191;39.566;2.654;2023-06-24T12:12:58;32.66;41.79
74661;SHT31;63191;39.566;2.654;2023-06-24T12:15:26;32.59;41.46
74661;SHT31;63191;39.566;2.654;2023-06-24T12:17:52;32.71;41.90
74661;SHT31;63191;39.566;2.654;2023-06-24T12:20:18;32.68;41.86
74661;SHT31;63191;39.566;2.654;2023-06-24T12:22:45;32.53;42.25
74661;SHT31;63191;39.566;2.654;2023-06-24T12:25:13;32.34;42.19
74661;SHT31;63191;39.566;2.654;2023-06-24T12:27:39;32.00;42.73
74661;SHT31;63191;39.566;2.654;2023-06-24T12:30:07;31.54;43.61
74661;SHT31;63191;39.566;2.654;2023-06-24T12:32:34;31.14;44.49
74661;SHT31;63191;39.566;2.654;2023-06-24T12:35:00;30.77;45.99
74661;SHT31;63191;39.566;2.654;2023-06-24T12:37:29;30.53;46.45
74661;SHT31;63191;39.566;2.654;2023-06-24T12:40:01;30.36;48.23
74661;SHT31;63191;39.566;2.654;2023-06-24T12:42:28;30.22;49.08
74661;SHT31;63191;39.566;2.654;2023-06-24T12:44:54;30.09;50.51
74661;SHT31;63191;39.566;2.654;2023-06-24T12:47:20;30.05;51.24
74661;SHT31;63191;39.566;2.654;2023-06-24T12:49:47;30.11;50.89
74661;SHT31;63191;39.566;2.654;2023-06-24T12:52:14;30.16;50.79
74661;SHT31;63191;39.566;2.654;2023-06-24T12:54:40;30.20;51.30
74661;SHT31;63191;39.566;2.654;2023-06-24T12:57:06;30.19;51.66
74661;SHT31;63191;39.566;2.654;2023-06-24T12:59:32;30.12;51.27
74661;SHT31;63191;39.566;2.654;2023-06-24T13:01:58;30.04;51.33
74661;SHT31;63191;39.566;2.654;2023-06-24T13:04:24;29.98;51.27
74661;SHT31;63191;39.566;2.654;2023-06-24T13:06:53;29.91;51.29
74661;SHT31;63191;39.566;2.654;2023-06-24T13:09:19;29.75;51.86
74661;SHT31;63191;39.566;2.654;2023-06-24T13:11:45;29.62;52.23
74661;SHT31;63191;39.566;2.654;2023-06-24T13:14:12;29.55;52.60
74661;SHT31;63191;39.566;2.654;2023-06-24T13:16:38;29.47;52.83
74661;SHT31;63191;39.566;2.654;2023-06-24T13:19:05;29.39;53.06
74661;SHT31;63191;39.566;2.654;2023-06-24T13:21:30;29.33;53.43
74661;SHT31;63191;39.566;2.654;2023-06-24T13:23:56;29.25;53.37
74661;SHT31;63191;39.566;2.654;2023-06-24T13:26:22;29.18;53.20
74661;SHT31;63191;39.566;2.654;2023-06-24T13:28:49;29.13;53.39
74661;SHT31;63191;39.566;2.654;2023-06-24T13:31:15;29.17;53.87
74661;SHT31;63191;39.566;2.654;2023-06-24T13:33:41;29.30;53.40
74661;SHT31;63191;39.566;2.654;2023-06-24T13:36:07;29.49;52.88
74661;SHT31;63191;39.566;2.654;2023-06-24T13:38:50;30.01;52.36
74661;SHT31;63191;39.566;2.654;2023-06-24T13:41:16;30.55;51.13
74661;SHT31;63191;39.566;2.654;2023-06-24T13:43:41;30.73;50.51
74661;SHT31;63191;39.566;2.654;2023-06-24T13:46:07;30.76;50.19
74661;SHT31;63191;39.566;2.654;2023-06-24T13:48:33;30.74;50.12
74661;SHT31;63191;39.566;2.654;2023-06-24T13:50:59;30.74;49.83
74661;SHT31;63191;39.566;2.654;2023-06-24T13:53:24;30.98;50.28
74661;SHT31;63191;39.566;2.654;2023-06-24T13:55:50;31.41;48.98
74661;SHT31;63191;39.566;2.654;2023-06-24T13:58:16;32.01;47.10
74661;SHT31;63191;39.566;2.654;2023-06-24T14:00:41;32.78;45.92
74661;SHT31;63191;39.566;2.654;2023-06-24T14:03:07;33.63;44.76
74661;SHT31;63191;39.566;2.654;2023-06-24T14:05:33;34.46;43.48
74661;SHT31;63191;39.566;2.654;2023-06-24T14:07:58;35.28;42.19
74661;SHT31;63191;39.566;2.654;2023-06-24T14:10:24;36.09;41.04
74661;SHT31;63191;39.566;2.654;2023-06-24T14:12:50;36.86;39.63
74661;SHT31;63191;39.566;2.654;2023-06-24T14:15:16;37.49;38.46
74661;SHT31;63191;39.566;2.654;2023-06-24T14:17:41;38.03;37.61
74661;SHT31;63191;39.566;2.654;2023-06-24T14:20:07;38.24;37.21
74661;SHT31;63191;39.566;2.654;2023-06-24T14:22:34;38.33;36.52
74661;SHT31;63191;39.566;2.654;2023-06-24T14:24:59;38.22;36.45
74661;SHT31;63191;39.566;2.654;2023-06-24T14:27:25;38.11;36.30
74661;SHT31;63191;39.566;2.654;2023-06-24T14:29:51;37.85;37.07
74661;SHT31;63191;39.566;2.654;2023-06-24T14:32:16;37.50;37.18
74661;SHT31;63191;39.566;2.654;2023-06-24T14:34:42;36.90;37.92
74661;SHT31;63191;39.566;2.654;2023-06-24T14:37:08;36.05;39.36
74661;SHT31;63191;39.566;2.654;2023-06-24T14:39:34;34.89;40.87
74661;SHT31;63191;39.566;2.654;2023-06-24T14:41:59;33.79;43.77
74661;SHT31;63191;39.566;2.654;2023-06-24T14:44:25;32.90;45.72
74661;SHT31;63191;39.566;2.654;2023-06-24T14:46:51;32.10;47.01
74661;SHT31;63191;39.566;2.654;2023-06-24T14:49:16;31.45;49.08
74661;SHT31;63191;39.566;2.654;2023-06-24T14:51:42;30.90;50.34
74661;SHT31;63191;39.566;2.654;2023-06-24T14:54:08;30.45;51.44
74661;SHT31;63191;39.566;2.654;2023-06-24T14:56:33;30.06;52.92
74661;SHT31;63191;39.566;2.654;2023-06-24T14:58:59;29.72;53.92
74661;SHT31;63191;39.566;2.654;2023-06-24T15:01:25;29.44;54.68
74661;SHT31;63191;39.566;2.654;2023-06-24T15:03:50;29.18;55.61
74661;SHT31;63191;39.566;2.654;2023-06-24T15:06:16;28.96;56.86
74661;SHT31;63191;39.566;2.654;2023-06-24T15:08:42;28.79;57.44
74661;SHT31;63191;39.566;2.654;2023-06-24T15:11:07;28.68;57.60
74661;SHT31;63191;39.566;2.654;2023-06-24T15:13:33;28.55;58.26
74661;SHT31;63191;39.566;2.654;2023-06-24T15:15:59;28.42;59.31
74661;SHT31;63191;39.566;2.654;2023-06-24T15:18:24;28.34;59.84
74661;SHT31;63191;39.566;2.654;2023-06-24T15:20:50;28.25;59.64
74661;SHT31;63191;39.566;2.654;2023-06-24T15:23:16;28.17;59.94
74661;SHT31;63191;39.566;2.654;2023-06-24T15:25:42;28.11;60.02
74661;SHT31;63191;39.566;2.654;2023-06-24T15:28:08;28.04;60.41
74661;SHT31;63191;39.566;2.654;2023-06-24T15:30:33;27.99;60.78
74661;SHT31;63191;39.566;2.654;2023-06-24T15:32:59;27.95;61.84
74661;SHT31;63191;39.566;2.654;2023-06-24T15:35:25;27.95;61.94
74661;SHT31;63191;39.566;2.654;2023-06-24T15:37:51;27.89;61.92
74661;SHT31;63191;39.566;2.654;2023-06-24T15:40:17;27.82;62.45
74661;SHT31;63191;39.566;2.654;2023-06-24T15:42:42;27.80;62.37
74661;SHT31;63191;39.566;2.654;2023-06-24T15:45:08;27.76;62.09
74661;SHT31;63191;39.566;2.654;2023-06-24T15:47:34;27.71;62.79
74661;SHT31;63191;39.566;2.654;2023-06-24T15:50:00;27.66;63.31
74661;SHT31;63191;39.566;2.654;2023-06-24T15:52:26;27.64;63.64
74661;SHT31;63191;39.566;2.654;2023-06-24T15:54:52;27.62;64.51